createdAt,value
2022-07-25T00:02:25.166Z,25.80
2022-07-25T00:04:53.112Z,25.80
2022-07-25T00:07:20.477Z,25.80
2022-07-25T00:09:47.855Z,25.80
2022-07-25T00:12:15.241Z,25.70
2022-07-25T00:14:42.598Z,26.30
2022-07-25T00:17:09.983Z,25.70
2022-07-25T00:19:37.764Z,25.60
2022-07-25T00:22:05.319Z,25.60
2022-07-25T00:24:33.110Z,25.60
2022-07-25T00:27:00.421Z,25.60
2022-07-25T00:29:27.840Z,26.20
2022-07-25T00:31:55.203Z,25.80
2022-07-25T00:34:22.626Z,25.50
2022-07-25T00:36:50.038Z,25.40
2022-07-25T00:39:17.405Z,25.40
2022-07-25T00:41:45.131Z,25.40
2022-07-25T00:44:26.871Z,25.40
2022-07-25T00:46:55.167Z,25.30
2022-07-25T00:49:23.403Z,25.40
2022-07-25T00:51:52.076Z,25.50
2022-07-25T00:54:20.073Z,25.50
2022-07-25T00:56:48.118Z,25.20
2022-07-25T00:59:16.975Z,25.20
2022-07-25T01:01:45.564Z,25.40
2022-07-25T01:04:13.070Z,25.70
2022-07-25T01:06:40.436Z,25.10
2022-07-25T01:09:08.202Z,25.10
2022-07-25T01:11:35.571Z,25.20
2022-07-25T01:14:03.346Z,25.00
2022-07-25T01:16:31.251Z,25.00
2022-07-25T01:18:59.144Z,25.00
2022-07-25T01:21:27.377Z,25.00
2022-07-25T01:23:55.239Z,24.90
2022-07-25T01:26:22.529Z,25.20
2022-07-25T01:28:49.914Z,24.90
2022-07-25T01:31:17.739Z,24.90
2022-07-25T01:33:45.211Z,25.10
2022-07-25T01:36:12.937Z,24.80
2022-07-25T01:38:40.648Z,24.90
2022-07-25T01:41:08.005Z,24.70
2022-07-25T01:43:35.356Z,24.70
2022-07-25T01:46:02.769Z,24.70
2022-07-25T01:48:30.231Z,24.80
2022-07-25T01:50:57.619Z,24.90
2022-07-25T01:53:24.951Z,24.70
2022-07-25T01:55:53.585Z,24.90
2022-07-25T01:58:21.888Z,24.60
2022-07-25T02:00:50.257Z,24.60
2022-07-25T02:03:32.113Z,24.60
2022-07-25T02:06:05.742Z,24.60
2022-07-25T02:08:38.230Z,24.60
2022-07-25T02:11:06.722Z,24.60
2022-07-25T02:13:35.159Z,24.60
2022-07-25T02:16:02.442Z,24.60
2022-07-25T02:18:29.823Z,24.50
2022-07-25T02:20:57.227Z,24.50
2022-07-25T02:23:24.578Z,24.70
2022-07-25T02:25:51.939Z,25.20
2022-07-25T02:28:19.417Z,24.70
2022-07-25T02:30:46.778Z,24.70
2022-07-25T02:33:14.110Z,24.40
2022-07-25T02:35:41.442Z,24.80
2022-07-25T02:38:08.909Z,24.40
2022-07-25T02:40:36.296Z,24.40
2022-07-25T02:43:03.750Z,24.40
2022-07-25T02:45:31.102Z,24.30
2022-07-25T02:48:01.644Z,24.30
2022-07-25T02:50:29.022Z,24.30
2022-07-25T02:52:56.553Z,24.30
2022-07-25T02:55:24.127Z,24.40
2022-07-25T02:57:51.625Z,24.30
2022-07-25T03:00:19.500Z,24.40
2022-07-25T03:02:47.155Z,25.00
2022-07-25T03:05:15.820Z,24.30
2022-07-25T03:07:45.404Z,24.30
2022-07-25T03:10:13.773Z,24.30
2022-07-25T03:12:42.100Z,24.20
2022-07-25T03:15:10.729Z,24.30
2022-07-25T03:17:39.330Z,24.20
2022-07-25T03:20:07.950Z,24.40
2022-07-25T03:22:35.607Z,24.20
2022-07-25T03:25:03.631Z,24.10
2022-07-25T03:27:31.371Z,24.20
2022-07-25T03:29:58.758Z,24.10
2022-07-25T03:32:26.089Z,24.20
2022-07-25T03:34:53.482Z,24.60
2022-07-25T03:37:22.083Z,24.20
2022-07-25T03:39:49.594Z,24.20
2022-07-25T03:42:17.007Z,24.20
2022-07-25T03:44:44.379Z,24.10
2022-07-25T03:47:20.677Z,24.10
2022-07-25T03:49:48.283Z,24.10
2022-07-25T03:52:15.647Z,24.10
2022-07-25T03:54:42.979Z,24.10
2022-07-25T03:57:11.663Z,24.10
2022-07-25T03:59:39.081Z,24.40
2022-07-25T04:02:06.540Z,24.10
2022-07-25T04:04:34.183Z,24.60
2022-07-25T04:07:01.533Z,24.00
2022-07-25T04:09:30.973Z,24.00
2022-07-25T04:12:01.175Z,24.00
2022-07-25T04:14:28.584Z,24.30
2022-07-25T04:17:25.863Z,23.90
2022-07-25T04:19:53.252Z,23.90
2022-07-25T04:22:21.236Z,24.00
2022-07-25T04:24:48.832Z,24.00
2022-07-25T04:27:16.663Z,24.00
2022-07-25T04:29:44.105Z,24.00
2022-07-25T04:32:11.603Z,23.90
2022-07-25T04:34:46.131Z,24.40
2022-07-25T04:37:13.508Z,24.30
2022-07-25T04:39:40.823Z,23.80
2022-07-25T04:42:08.371Z,23.80
2022-07-25T04:44:35.770Z,23.80
2022-07-25T04:47:03.679Z,23.80
2022-07-25T04:49:30.941Z,23.80
2022-07-25T04:51:58.257Z,23.80
2022-07-25T04:54:26.634Z,24.40
2022-07-25T04:56:53.982Z,23.90
2022-07-25T04:59:21.333Z,23.90
2022-07-25T05:01:48.740Z,23.90
2022-07-25T05:04:16.146Z,24.50
2022-07-25T05:06:43.539Z,24.00
2022-07-25T05:09:10.892Z,24.00
2022-07-25T05:11:39.726Z,24.10
2022-07-25T05:14:09.287Z,24.80
2022-07-25T05:16:36.960Z,24.40
2022-07-25T05:19:04.547Z,24.60
2022-07-25T05:21:32.570Z,25.10
2022-07-25T05:23:59.921Z,25.00
2022-07-25T05:26:27.293Z,25.50
2022-07-25T05:28:54.667Z,25.20
2022-07-25T05:31:22.265Z,25.90
2022-07-25T05:33:49.691Z,25.80
2022-07-25T05:36:18.489Z,25.60
2022-07-25T05:38:45.900Z,25.80
2022-07-25T05:41:33.491Z,26.00
2022-07-25T05:44:01.118Z,26.20
2022-07-25T05:46:28.596Z,26.30
2022-07-25T05:48:56.205Z,26.60
2022-07-25T05:51:26.823Z,26.80
2022-07-25T05:53:55.010Z,26.90
2022-07-25T05:56:22.387Z,27.00
2022-07-25T05:58:49.782Z,27.20
2022-07-25T06:01:18.271Z,27.40
2022-07-25T06:03:45.758Z,27.90
2022-07-25T06:06:13.159Z,27.70
2022-07-25T06:08:40.901Z,28.00
2022-07-25T06:11:08.585Z,28.30
2022-07-25T06:13:37.222Z,28.50
2022-07-25T06:16:05.117Z,28.70
2022-07-25T06:18:32.542Z,29.00
2022-07-25T06:21:00.422Z,29.50
2022-07-25T06:23:28.001Z,29.90
2022-07-25T06:25:55.451Z,30.50
2022-07-25T06:28:22.871Z,30.90
2022-07-25T06:30:50.319Z,31.40
2022-07-25T06:33:17.969Z,31.80
2022-07-25T06:35:45.345Z,32.20
2022-07-25T06:38:12.690Z,32.70
2022-07-25T06:40:42.779Z,33.10
2022-07-25T06:43:10.310Z,33.40
2022-07-25T06:45:37.807Z,33.60
2022-07-25T06:48:15.205Z,34.30
2022-07-25T06:50:42.929Z,34.20
2022-07-25T06:53:10.336Z,34.40
2022-07-25T06:55:37.763Z,34.70
2022-07-25T06:58:05.427Z,34.90
2022-07-25T07:00:32.853Z,35.20
2022-07-25T07:03:02.285Z,35.50
2022-07-25T07:05:32.451Z,36.00
2022-07-25T07:08:00.327Z,35.80
2022-07-25T07:10:28.192Z,35.90
2022-07-25T07:13:14.003Z,36.10
2022-07-25T07:15:50.141Z,36.40
2022-07-25T07:18:18.766Z,36.10
2022-07-25T07:20:47.142Z,36.70
2022-07-25T07:23:16.859Z,36.80
2022-07-25T07:25:46.886Z,37.00
2022-07-25T07:28:15.643Z,37.20
2022-07-25T07:31:14.622Z,37.30
2022-07-25T07:33:32.728Z,37.40
2022-07-25T07:36:01.931Z,37.60
2022-07-25T07:38:29.400Z,37.80
2022-07-25T07:40:56.758Z,37.90
2022-07-25T07:43:29.629Z,38.10
2022-07-25T07:46:00.739Z,38.20
2022-07-25T07:48:33.134Z,38.40
2022-07-25T07:51:01.707Z,38.50
2022-07-25T07:53:48.606Z,38.60
2022-07-25T07:56:16.473Z,38.80
2022-07-25T07:58:43.796Z,38.90
2022-07-25T08:01:11.915Z,39.00
2022-07-25T08:03:39.410Z,39.10
2022-07-25T08:06:07.427Z,39.30
2022-07-25T08:08:35.536Z,39.40
2022-07-25T08:11:03.026Z,39.40
2022-07-25T08:13:31.956Z,39.50
2022-07-25T08:16:03.463Z,39.40
2022-07-25T08:18:32.942Z,39.50
2022-07-25T08:21:06.307Z,39.60
2022-07-25T08:23:35.406Z,39.40
2022-07-25T08:26:03.860Z,39.40
2022-07-25T08:28:31.611Z,39.40
2022-07-25T08:30:59.173Z,39.40
2022-07-25T08:33:27.167Z,39.40
2022-07-25T08:35:55.914Z,39.50
2022-07-25T08:38:25.305Z,39.50
2022-07-25T08:40:53.893Z,39.60
2022-07-25T08:43:37.659Z,39.60
2022-07-25T08:46:07.009Z,39.60
2022-07-25T08:48:34.692Z,39.70
2022-07-25T08:51:02.876Z,39.80
2022-07-25T08:53:33.695Z,39.80
2022-07-25T08:56:12.152Z,39.90
2022-07-25T08:58:43.930Z,39.90
2022-07-25T09:01:12.989Z,40.00
2022-07-25T09:03:42.869Z,40.00
2022-07-25T09:06:15.419Z,40.00
2022-07-25T09:08:54.027Z,39.90
2022-07-25T09:11:31.512Z,39.80
2022-07-25T09:14:09.274Z,39.90
2022-07-25T09:16:40.416Z,40.00
2022-07-25T09:19:20.459Z,40.10
2022-07-25T09:22:06.312Z,40.10
2022-07-25T09:24:34.930Z,40.10
2022-07-25T09:27:09.562Z,40.20
2022-07-25T09:29:39.939Z,40.30
2022-07-25T09:32:19.719Z,40.40
2022-07-25T09:34:49.215Z,40.40
2022-07-25T09:37:19.749Z,40.60
2022-07-25T09:39:50.694Z,40.80
2022-07-25T09:42:20.322Z,41.00
2022-07-25T09:45:13.292Z,41.20
2022-07-25T09:47:56.145Z,41.30
2022-07-25T09:50:25.156Z,41.60
2022-07-25T09:52:54.953Z,41.80
2022-07-25T09:55:22.996Z,41.80
2022-07-25T09:57:52.546Z,41.90
2022-07-25T10:00:24.038Z,42.00
2022-07-25T10:03:15.750Z,42.00
2022-07-25T10:06:05.400Z,41.80
2022-07-25T10:08:38.182Z,41.70
2022-07-25T10:11:06.768Z,41.50
2022-07-25T10:13:35.471Z,41.50
2022-07-25T10:16:03.101Z,41.40
2022-07-25T10:18:31.477Z,41.40
2022-07-25T10:21:24.905Z,41.30
2022-07-25T10:24:10.480Z,41.30
2022-07-25T10:26:50.975Z,41.30
2022-07-25T10:29:18.443Z,41.30
2022-07-25T10:31:51.095Z,41.20
2022-07-25T10:34:30.761Z,41.10
2022-07-25T10:37:15.686Z,41.00
2022-07-25T10:39:48.576Z,40.90
2022-07-25T10:42:18.225Z,40.90
2022-07-25T10:44:48.639Z,40.80
2022-07-25T10:47:17.901Z,40.70
2022-07-25T10:50:14.485Z,40.70
2022-07-25T10:52:41.584Z,40.70
2022-07-25T10:55:09.162Z,40.70
2022-07-25T10:57:49.741Z,40.70
2022-07-25T11:00:22.602Z,40.60
2022-07-25T11:02:50.323Z,40.40
2022-07-25T11:05:18.591Z,40.50
2022-07-25T11:08:20.530Z,40.40
2022-07-25T11:10:52.192Z,40.40
2022-07-25T11:13:19.666Z,40.40
2022-07-25T11:15:47.063Z,40.50
2022-07-25T11:18:14.480Z,40.40
2022-07-25T11:20:41.951Z,40.40
2022-07-25T11:23:09.304Z,40.40
2022-07-25T11:25:36.618Z,40.40
2022-07-25T11:28:04.305Z,40.30
2022-07-25T11:30:32.371Z,40.20
2022-07-25T11:33:01.576Z,40.20
2022-07-25T11:35:31.686Z,40.20
2022-07-25T11:38:02.183Z,40.20
2022-07-25T11:40:31.393Z,40.20
2022-07-25T11:42:59.767Z,40.20
2022-07-25T11:45:28.998Z,40.20
2022-07-25T11:48:08.598Z,40.20
2022-07-25T11:50:45.955Z,40.20
2022-07-25T11:53:16.354Z,40.40
2022-07-25T11:55:44.134Z,40.20
2022-07-25T11:58:13.487Z,40.20
2022-07-25T12:00:43.534Z,40.20
2022-07-25T12:03:20.039Z,40.10
2022-07-25T12:05:49.863Z,40.10
2022-07-25T12:08:20.334Z,40.10
2022-07-25T12:10:49.159Z,40.00
2022-07-25T12:13:27.277Z,40.00
2022-07-25T12:15:56.829Z,40.00
2022-07-25T12:18:24.521Z,40.00
2022-07-25T12:21:14.704Z,40.00
2022-07-25T12:23:42.218Z,40.00
2022-07-25T12:26:13.404Z,40.00
2022-07-25T12:28:40.991Z,40.10
2022-07-25T12:31:09.861Z,40.10
2022-07-25T12:33:37.841Z,40.00
2022-07-25T12:36:08.567Z,40.00
2022-07-25T12:38:37.502Z,40.00
2022-07-25T12:41:05.303Z,40.00
2022-07-25T12:43:35.706Z,39.90
2022-07-25T12:46:03.582Z,39.90
2022-07-25T12:48:31.286Z,40.00
2022-07-25T12:50:58.742Z,39.80
2022-07-25T12:53:26.095Z,39.80
2022-07-25T12:55:53.470Z,39.90
2022-07-25T12:58:21.395Z,39.90
2022-07-25T13:00:49.224Z,39.80
2022-07-25T13:03:17.793Z,39.70
2022-07-25T13:05:45.179Z,39.60
2022-07-25T13:08:12.601Z,39.50
2022-07-25T13:10:39.948Z,39.60
2022-07-25T13:13:07.291Z,39.70
2022-07-25T13:15:36.225Z,39.30
2022-07-25T13:18:04.070Z,39.30
2022-07-25T13:20:31.939Z,39.20
2022-07-25T13:22:59.298Z,39.20
2022-07-25T13:25:26.697Z,39.30
2022-07-25T13:27:54.054Z,39.20
2022-07-25T13:30:21.476Z,39.10
2022-07-25T13:32:49.401Z,38.70
2022-07-25T13:35:20.402Z,39.10
2022-07-25T13:37:48.078Z,39.00
2022-07-25T13:40:15.490Z,38.90
2022-07-25T13:42:42.799Z,38.90
2022-07-25T13:45:10.311Z,38.90
2022-07-25T13:47:37.685Z,38.90
2022-07-25T13:50:06.109Z,38.90
2022-07-25T13:52:33.716Z,38.90
2022-07-25T13:55:01.539Z,38.90
2022-07-25T13:57:28.963Z,38.80
2022-07-25T13:59:56.846Z,38.80
2022-07-25T14:02:24.428Z,38.80
2022-07-25T14:04:51.802Z,38.70
2022-07-25T14:07:19.204Z,38.70
2022-07-25T14:09:46.535Z,38.60
2022-07-25T14:12:13.916Z,38.60
2022-07-25T14:14:41.240Z,38.60
2022-07-25T14:17:08.604Z,38.60
2022-07-25T14:19:36.039Z,38.70
2022-07-25T14:22:03.802Z,38.70
2022-07-25T14:24:31.154Z,38.70
2022-07-25T14:26:58.603Z,38.80
2022-07-25T14:29:30.352Z,38.80
2022-07-25T14:31:58.080Z,38.80
2022-07-25T14:34:25.463Z,38.90
2022-07-25T14:36:52.925Z,39.00
2022-07-25T14:39:20.292Z,39.00
2022-07-25T14:41:47.929Z,39.00
2022-07-25T14:44:15.287Z,39.00
2022-07-25T14:46:45.544Z,39.00
2022-07-25T14:49:16.731Z,39.00
2022-07-25T14:51:45.639Z,39.00
2022-07-25T14:54:13.097Z,38.90
2022-07-25T14:56:40.598Z,38.90
2022-07-25T14:59:08.506Z,38.70
2022-07-25T15:01:39.815Z,38.70
2022-07-25T15:04:07.981Z,38.70
2022-07-25T15:06:36.357Z,38.70
2022-07-25T15:09:04.865Z,38.70
2022-07-25T15:11:36.348Z,38.70
2022-07-25T15:14:13.123Z,38.60
2022-07-25T15:16:40.722Z,38.60
2022-07-25T15:19:17.025Z,38.60
2022-07-25T15:21:45.546Z,38.60
2022-07-25T15:24:13.862Z,38.50
2022-07-25T15:26:41.323Z,38.50
2022-07-25T15:29:10.406Z,38.50
2022-07-25T15:31:38.323Z,38.50
2022-07-25T15:34:05.798Z,38.50
2022-07-25T15:36:33.150Z,38.50
2022-07-25T15:39:00.448Z,38.50
2022-07-25T15:41:27.903Z,38.50
2022-07-25T15:44:00.706Z,38.50
2022-07-25T15:46:28.946Z,38.50
2022-07-25T15:48:59.647Z,38.50
2022-07-25T15:51:27.073Z,38.50
2022-07-25T15:53:54.442Z,38.50
2022-07-25T15:56:21.985Z,38.50
2022-07-25T15:58:49.531Z,38.50
2022-07-25T16:01:17.293Z,38.40
2022-07-25T16:03:45.320Z,38.40
2022-07-25T16:06:18.433Z,38.40
2022-07-25T16:08:47.943Z,38.40
2022-07-25T16:11:24.349Z,38.30
2022-07-25T16:13:52.247Z,38.20
2022-07-25T16:16:22.015Z,38.10
2022-07-25T16:18:49.614Z,38.00
2022-07-25T16:21:17.590Z,37.90
2022-07-25T16:23:45.856Z,37.90
2022-07-25T16:26:13.643Z,37.70
2022-07-25T16:28:41.387Z,37.70
2022-07-25T16:31:09.198Z,37.60
2022-07-25T16:33:36.735Z,37.60
2022-07-25T16:36:04.922Z,37.50
2022-07-25T16:38:32.667Z,37.40
2022-07-25T16:41:00.126Z,37.30
2022-07-25T16:43:27.464Z,37.20
2022-07-25T16:45:55.018Z,37.30
2022-07-25T16:48:25.035Z,37.30
2022-07-25T16:50:52.530Z,37.30
2022-07-25T16:53:20.509Z,37.30
2022-07-25T16:55:50.182Z,37.20
2022-07-25T16:58:17.626Z,37.30
2022-07-25T17:00:45.025Z,37.30
2022-07-25T17:03:12.435Z,37.30
2022-07-25T17:05:40.439Z,37.20
2022-07-25T17:08:07.813Z,37.10
2022-07-25T17:10:35.111Z,37.00
2022-07-25T17:13:02.519Z,36.80
2022-07-25T17:15:29.881Z,36.70
2022-07-25T17:17:59.025Z,36.60
2022-07-25T17:20:55.356Z,36.50
2022-07-25T17:23:23.525Z,36.40
2022-07-25T17:25:51.073Z,36.20
2022-07-25T17:28:18.471Z,36.10
2022-07-25T17:30:49.101Z,36.00
2022-07-25T17:33:18.577Z,35.90
2022-07-25T17:35:46.016Z,35.70
2022-07-25T17:38:14.513Z,35.60
2022-07-25T17:40:41.992Z,35.50
2022-07-25T17:43:09.427Z,35.30
2022-07-25T17:45:37.166Z,35.20
2022-07-25T17:48:04.861Z,35.00
2022-07-25T17:50:32.234Z,34.90
2022-07-25T17:52:59.982Z,34.80
2022-07-25T17:55:28.866Z,34.90
2022-07-25T17:57:57.663Z,34.50
2022-07-25T18:00:25.555Z,34.40
2022-07-25T18:02:53.057Z,34.30
2022-07-25T18:05:20.450Z,34.20
2022-07-25T18:07:49.509Z,34.10
2022-07-25T18:10:17.958Z,34.10
2022-07-25T18:12:49.036Z,34.10
2022-07-25T18:15:17.124Z,33.90
2022-07-25T18:17:46.259Z,33.80
2022-07-25T18:20:15.175Z,33.70
2022-07-25T18:22:42.741Z,33.70
2022-07-25T18:25:12.216Z,33.50
2022-07-25T18:27:46.855Z,33.50
2022-07-25T18:30:15.848Z,33.30
2022-07-25T18:32:43.470Z,33.10
2022-07-25T18:35:11.356Z,33.00
2022-07-25T18:37:39.190Z,32.90
2022-07-25T18:40:07.676Z,32.80
2022-07-25T18:42:35.663Z,32.60
2022-07-25T18:45:04.726Z,32.50
2022-07-25T18:47:34.969Z,32.40
2022-07-25T18:50:03.542Z,32.40
2022-07-25T18:52:34.917Z,32.30
2022-07-25T18:55:04.426Z,32.30
2022-07-25T18:57:31.886Z,32.10
2022-07-25T19:02:29.200Z,32.10
2022-07-25T19:04:56.993Z,32.00
2022-07-25T19:07:25.885Z,31.90
2022-07-25T19:09:53.258Z,31.80
2022-07-25T19:12:20.672Z,31.70
2022-07-25T19:14:48.186Z,31.60
2022-07-25T19:17:15.595Z,31.60
2022-07-25T19:19:43.845Z,32.00
2022-07-25T19:22:11.307Z,31.50
2022-07-25T19:24:38.670Z,31.50
2022-07-25T19:27:06.590Z,31.40
2022-07-25T19:29:34.076Z,31.30
2022-07-25T19:32:01.495Z,31.30
2022-07-25T19:34:28.931Z,31.30
2022-07-25T19:36:56.766Z,31.20
2022-07-25T19:39:24.689Z,31.20
2022-07-25T19:41:52.528Z,31.10
2022-07-25T19:44:20.355Z,31.10
2022-07-25T19:46:49.426Z,31.00
2022-07-25T19:49:17.097Z,31.00
2022-07-25T19:51:44.704Z,30.90
2022-07-25T19:54:12.209Z,30.90
2022-07-25T19:56:39.746Z,31.30
2022-07-25T19:59:07.173Z,30.80
2022-07-25T20:01:36.161Z,30.80
2022-07-25T20:04:05.391Z,30.70
2022-07-25T20:06:33.226Z,30.70
2022-07-25T20:09:01.348Z,30.70
2022-07-25T20:11:28.849Z,30.60
2022-07-25T20:13:56.731Z,30.60
2022-07-25T20:16:24.193Z,30.60
2022-07-25T20:18:51.854Z,30.50
2022-07-25T20:21:19.320Z,30.40
2022-07-25T20:23:46.997Z,30.40
2022-07-25T20:26:14.656Z,30.40
2022-07-25T20:28:42.120Z,30.30
2022-07-25T20:31:09.657Z,30.30
2022-07-25T20:33:37.509Z,30.30
2022-07-25T20:36:05.259Z,30.20
2022-07-25T20:38:32.821Z,30.10
2022-07-25T20:41:00.425Z,30.10
2022-07-25T20:43:28.581Z,30.00
2022-07-25T20:45:56.328Z,30.30
2022-07-25T20:48:24.071Z,30.00
2022-07-25T20:50:51.642Z,29.80
2022-07-25T20:53:19.730Z,29.80
2022-07-25T20:55:47.112Z,29.80
2022-07-25T20:58:14.445Z,29.80
2022-07-25T21:00:42.410Z,29.80
2022-07-25T21:03:09.934Z,29.70
2022-07-25T21:05:42.745Z,29.70
2022-07-25T21:08:12.954Z,29.70
2022-07-25T21:10:40.406Z,29.70
2022-07-25T21:13:07.782Z,29.60
2022-07-25T21:15:35.243Z,29.60
2022-07-25T21:18:02.864Z,30.10
2022-07-25T21:20:30.286Z,29.50
2022-07-25T21:22:57.659Z,29.50
2022-07-25T21:25:25.150Z,29.50
2022-07-25T21:27:52.747Z,29.40
2022-07-25T21:30:20.157Z,29.40
2022-07-25T21:32:47.698Z,29.80
2022-07-25T21:35:15.163Z,29.30
2022-07-25T21:37:42.497Z,29.30
2022-07-25T21:40:10.674Z,29.80
2022-07-25T21:42:38.580Z,29.20
2022-07-25T21:45:06.617Z,29.20
2022-07-25T21:47:34.039Z,29.20
2022-07-25T21:50:24.503Z,29.10
2022-07-25T21:52:53.829Z,29.10
2022-07-25T21:55:21.523Z,29.10
2022-07-25T21:57:49.446Z,29.10
2022-07-25T22:00:17.384Z,29.00
2022-07-25T22:02:46.068Z,29.00
2022-07-25T22:05:15.396Z,28.90
2022-07-25T22:07:44.190Z,29.00
2022-07-25T22:10:13.229Z,28.90
2022-07-25T22:12:41.351Z,29.30
2022-07-25T22:15:12.238Z,29.30
2022-07-25T22:17:48.378Z,28.80
2022-07-25T22:20:20.277Z,28.80
2022-07-25T22:22:48.798Z,28.70
2022-07-25T22:25:16.867Z,28.60
2022-07-25T22:27:44.826Z,28.60
2022-07-25T22:30:18.229Z,28.60
2022-07-25T22:32:47.830Z,28.70
2022-07-25T22:35:15.901Z,28.50
2022-07-25T22:37:44.480Z,28.70
2022-07-25T22:40:12.987Z,29.00
2022-07-25T22:42:40.750Z,28.50
2022-07-25T22:45:08.838Z,28.70
2022-07-25T22:47:36.307Z,28.50
2022-07-25T22:50:05.263Z,28.40
2022-07-25T22:52:34.835Z,28.40
2022-07-25T22:55:02.424Z,28.40
2022-07-25T22:57:29.733Z,28.30
2022-07-25T23:00:11.069Z,28.80
2022-07-25T23:02:39.277Z,28.30
2022-07-25T23:05:07.691Z,28.20
2022-07-25T23:07:35.693Z,28.20
2022-07-25T23:10:04.177Z,28.20
2022-07-25T23:12:31.549Z,28.10
2022-07-25T23:14:59.554Z,28.00
2022-07-25T23:17:27.019Z,27.90
2022-07-25T23:20:05.758Z,27.90
2022-07-25T23:22:33.193Z,27.70
2022-07-25T23:25:00.529Z,27.70
2022-07-25T23:27:28.294Z,28.20
2022-07-25T23:30:00.579Z,27.60
2022-07-25T23:32:28.071Z,27.60
2022-07-25T23:34:55.546Z,27.80
2022-07-25T23:37:22.905Z,27.80
2022-07-25T23:39:50.226Z,27.40
2022-07-25T23:42:17.567Z,27.40
2022-07-25T23:44:45.586Z,27.30
2022-07-25T23:47:14.434Z,27.30
2022-07-25T23:49:41.878Z,27.60
2022-07-25T23:52:09.359Z,27.20
2022-07-25T23:54:38.183Z,27.20
2022-07-25T23:57:05.873Z,27.60
2022-07-25T23:59:35.317Z,27.20
